sensor_id;sensor_type;location;lat;lon;timestamp;P1;durP1;ratioP1;P2;durP2;ratioP2
24409;SDS011;12543;53.364;-1.504;2024-01-30T00:00:16;18.67;;;10.70;;
24409;SDS011;12543;53.364;-1.504;2024-01-30T00:02:44;13.48;;;10.35;;
24409;SDS011;12543;53.364;-1.504;2024-01-30T00:05:12;17.60;;;11.15;;
24409;SDS011;12543;53.364;-1.504;2024-01-30T00:07:40;13.52;;;10.20;;
24409;SDS011;12543;53.364;-1.504;2024-01-30T00:10:07;11.98;;;8.98;;
24409;SDS011;12543;53.364;-1.504;2024-01-30T00:12:35;15.95;;;10.15;;
24409;SDS011;12543;53.364;-1.504;2024-01-30T00:15:02;11.98;;;9.57;;
24409;SDS011;12543;53.364;-1.504;2024-01-30T00:17:31;19.17;;;11.38;;
24409;SDS011;12543;53.364;-1.504;2024-01-30T00:19:58;15.27;;;10.82;;
24409;SDS011;12543;53.364;-1.504;2024-01-30T00:22:26;21.83;;;12.88;;
24409;SDS011;12543;53.364;-1.504;2024-01-30T00:24:56;22.05;;;13.90;;
24409;SDS011;12543;53.364;-1.504;2024-01-30T00:27:24;24.53;;;14.33;;
24409;SDS011;12543;53.364;-1.504;2024-01-30T00:29:52;28.75;;;13.27;;
24409;SDS011;12543;53.364;-1.504;2024-01-30T00:32:20;19.50;;;13.27;;
24409;SDS011;12543;53.364;-1.504;2024-01-30T00:34:49;22.45;;;13.90;;
24409;SDS011;12543;53.364;-1.504;2024-01-30T00:37:16;18.90;;;11.90;;
24409;SDS011;12543;53.364;-1.504;2024-01-30T00:39:44;17.77;;;12.10;;
24409;SDS011;12543;53.364;-1.504;2024-01-30T00:42:12;17.87;;;11.93;;
24409;SDS011;12543;53.364;-1.504;2024-01-30T00:44:39;17.90;;;11.65;;
24409;SDS011;12543;53.364;-1.504;2024-01-30T00:47:07;16.20;;;12.80;;
24409;SDS011;12543;53.364;-1.504;2024-01-30T00:49:35;21.85;;;13.90;;
24409;SDS011;12543;53.364;-1.504;2024-01-30T00:52:03;26.92;;;14.10;;
24409;SDS011;12543;53.364;-1.504;2024-01-30T00:54:31;23.45;;;12.85;;
24409;SDS011;12543;53.364;-1.504;2024-01-30T00:56:58;20.23;;;12.03;;
24409;SDS011;12543;53.364;-1.504;2024-01-30T00:59:26;19.77;;;12.95;;
24409;SDS011;12543;53.364;-1.504;2024-01-30T01:01:53;22.58;;;13.10;;
24409;SDS011;12543;53.364;-1.504;2024-01-30T01:04:21;19.52;;;11.10;;
24409;SDS011;12543;53.364;-1.504;2024-01-30T01:06:49;21.60;;;12.00;;
24409;SDS011;12543;53.364;-1.504;2024-01-30T01:09:17;28.75;;;13.63;;
24409;SDS011;12543;53.364;-1.504;2024-01-30T01:11:44;17.45;;;11.77;;
24409;SDS011;12543;53.364;-1.504;2024-01-30T01:14:12;18.57;;;11.50;;
24409;SDS011;12543;53.364;-1.504;2024-01-30T01:16:39;13.93;;;10.02;;
24409;SDS011;12543;53.364;-1.504;2024-01-30T01:19:07;19.07;;;10.53;;
24409;SDS011;12543;53.364;-1.504;2024-01-30T01:21:35;13.70;;;10.13;;
24409;SDS011;12543;53.364;-1.504;2024-01-30T01:24:02;17.23;;;10.73;;
24409;SDS011;12543;53.364;-1.504;2024-01-30T01:26:30;19.60;;;11.20;;
24409;SDS011;12543;53.364;-1.504;2024-01-30T01:28:57;17.38;;;11.73;;
24409;SDS011;12543;53.364;-1.504;2024-01-30T01:31:25;19.88;;;12.18;;
24409;SDS011;12543;53.364;-1.504;2024-01-30T01:33:56;26.42;;;14.52;;
24409;SDS011;12543;53.364;-1.504;2024-01-30T01:36:24;20.73;;;13.20;;
24409;SDS011;12543;53.364;-1.504;2024-01-30T01:38:51;20.50;;;12.57;;
24409;SDS011;12543;53.364;-1.504;2024-01-30T01:41:19;15.77;;;10.93;;
24409;SDS011;12543;53.364;-1.504;2024-01-30T01:43:46;20.33;;;12.27;;
24409;SDS011;12543;53.364;-1.504;2024-01-30T01:46:13;19.13;;;11.38;;
24409;SDS011;12543;53.364;-1.504;2024-01-30T01:48:41;18.23;;;11.10;;
24409;SDS011;12543;53.364;-1.504;2024-01-30T01:53:37;16.63;;;10.37;;
24409;SDS011;12543;53.364;-1.504;2024-01-30T01:56:05;15.07;;;9.10;;
24409;SDS011;12543;53.364;-1.504;2024-01-30T01:58:33;13.70;;;8.90;;
24409;SDS011;12543;53.364;-1.504;2024-01-30T02:01:00;13.93;;;8.55;;
24409;SDS011;12543;53.364;-1.504;2024-01-30T02:05:56;13.32;;;9.35;;
24409;SDS011;12543;53.364;-1.504;2024-01-30T02:08:24;14.13;;;9.05;;
24409;SDS011;12543;53.364;-1.504;2024-01-30T02:10:51;15.80;;;9.82;;
24409;SDS011;12543;53.364;-1.504;2024-01-30T02:13:19;13.47;;;9.60;;
24409;SDS011;12543;53.364;-1.504;2024-01-30T02:15:50;11.00;;;8.45;;
24409;SDS011;12543;53.364;-1.504;2024-01-30T02:18:19;10.68;;;8.07;;
24409;SDS011;12543;53.364;-1.504;2024-01-30T02:20:48;11.02;;;8.52;;
24409;SDS011;12543;53.364;-1.504;2024-01-30T02:23:16;10.55;;;7.55;;
24409;SDS011;12543;53.364;-1.504;2024-01-30T02:25:43;8.90;;;5.83;;
24409;SDS011;12543;53.364;-1.504;2024-01-30T02:28:12;5.22;;;4.25;;
24409;SDS011;12543;53.364;-1.504;2024-01-30T02:30:40;3.97;;;3.13;;
24409;SDS011;12543;53.364;-1.504;2024-01-30T02:33:07;3.53;;;2.65;;
24409;SDS011;12543;53.364;-1.504;2024-01-30T02:35:35;3.63;;;2.05;;
24409;SDS011;12543;53.364;-1.504;2024-01-30T02:38:02;2.10;;;1.90;;
24409;SDS011;12543;53.364;-1.504;2024-01-30T02:40:31;2.35;;;1.67;;
24409;SDS011;12543;53.364;-1.504;2024-01-30T02:42:59;1.52;;;1.42;;
24409;SDS011;12543;53.364;-1.504;2024-01-30T02:45:27;1.48;;;1.38;;
24409;SDS011;12543;53.364;-1.504;2024-01-30T02:47:54;1.60;;;1.50;;
24409;SDS011;12543;53.364;-1.504;2024-01-30T02:50:22;1.50;;;1.40;;
24409;SDS011;12543;53.364;-1.504;2024-01-30T02:52:49;1.48;;;1.38;;
24409;SDS011;12543;53.364;-1.504;2024-01-30T02:55:17;2.22;;;1.63;;
24409;SDS011;12543;53.364;-1.504;2024-01-30T02:57:45;1.70;;;1.60;;
24409;SDS011;12543;53.364;-1.504;2024-01-30T03:00:12;1.83;;;1.73;;
24409;SDS011;12543;53.364;-1.504;2024-01-30T03:02:40;1.67;;;1.58;;
24409;SDS011;12543;53.364;-1.504;2024-01-30T03:05:08;1.52;;;1.42;;
24409;SDS011;12543;53.364;-1.504;2024-01-30T03:07:35;1.55;;;1.45;;
24409;SDS011;12543;53.364;-1.504;2024-01-30T03:10:06;1.30;;;1.30;;
24409;SDS011;12543;53.364;-1.504;2024-01-30T03:12:34;1.10;;;1.10;;
24409;SDS011;12543;53.364;-1.504;2024-01-30T03:15:01;1.30;;;1.13;;
24409;SDS011;12543;53.364;-1.504;2024-01-30T03:17:29;0.83;;;0.83;;
24409;SDS011;12543;53.364;-1.504;2024-01-30T03:19:56;1.00;;;1.00;;
24409;SDS011;12543;53.364;-1.504;2024-01-30T03:22:24;0.70;;;0.70;;
24409;SDS011;12543;53.364;-1.504;2024-01-30T03:24:52;0.80;;;0.80;;
24409;SDS011;12543;53.364;-1.504;2024-01-30T03:27:19;0.65;;;0.65;;
24409;SDS011;12543;53.364;-1.504;2024-01-30T03:29:47;0.70;;;0.70;;
24409;SDS011;12543;53.364;-1.504;2024-01-30T03:32:14;0.88;;;0.88;;
24409;SDS011;12543;53.364;-1.504;2024-01-30T03:34:42;0.70;;;0.70;;
24409;SDS011;12543;53.364;-1.504;2024-01-30T03:37:09;0.45;;;0.45;;
24409;SDS011;12543;53.364;-1.504;2024-01-30T03:39:37;0.40;;;0.40;;
24409;SDS011;12543;53.364;-1.504;2024-01-30T03:42:04;0.40;;;0.40;;
24409;SDS011;12543;53.364;-1.504;2024-01-30T03:44:32;0.30;;;0.30;;
24409;SDS011;12543;53.364;-1.504;2024-01-30T03:46:59;0.20;;;0.20;;
24409;SDS011;12543;53.364;-1.504;2024-01-30T03:49:27;0.22;;;0.22;;
24409;SDS011;12543;53.364;-1.504;2024-01-30T03:51:54;0.27;;;0.20;;
24409;SDS011;12543;53.364;-1.504;2024-01-30T03:54:22;0.20;;;0.20;;
24409;SDS011;12543;53.364;-1.504;2024-01-30T03:56:49;0.20;;;0.20;;
24409;SDS011;12543;53.364;-1.504;2024-01-30T03:59:17;0.30;;;0.30;;
24409;SDS011;12543;53.364;-1.504;2024-01-30T04:01:50;0.20;;;0.20;;
24409;SDS011;12543;53.364;-1.504;2024-01-30T04:04:18;0.20;;;0.20;;
24409;SDS011;12543;53.364;-1.504;2024-01-30T04:06:46;0.22;;;0.22;;
24409;SDS011;12543;53.364;-1.504;2024-01-30T04:09:14;0.20;;;0.20;;
24409;SDS011;12543;53.364;-1.504;2024-01-30T04:11:41;0.30;;;0.30;;
24409;SDS011;12543;53.364;-1.504;2024-01-30T04:14:09;0.30;;;0.30;;
24409;SDS011;12543;53.364;-1.504;2024-01-30T04:16:36;0.40;;;0.32;;
24409;SDS011;12543;53.364;-1.504;2024-01-30T04:19:04;0.20;;;0.20;;
24409;SDS011;12543;53.364;-1.504;2024-01-30T04:21:31;0.30;;;0.30;;
24409;SDS011;12543;53.364;-1.504;2024-01-30T04:23:59;0.25;;;0.25;;
24409;SDS011;12543;53.364;-1.504;2024-01-30T04:26:26;0.20;;;0.20;;
24409;SDS011;12543;53.364;-1.504;2024-01-30T04:28:54;0.40;;;0.40;;
24409;SDS011;12543;53.364;-1.504;2024-01-30T04:31:22;0.40;;;0.40;;
24409;SDS011;12543;53.364;-1.504;2024-01-30T04:33:50;0.40;;;0.40;;
24409;SDS011;12543;53.364;-1.504;2024-01-30T04:36:17;1.33;;;0.43;;
24409;SDS011;12543;53.364;-1.504;2024-01-30T04:38:45;0.60;;;0.60;;
24409;SDS011;12543;53.364;-1.504;2024-01-30T04:41:12;0.67;;;0.50;;
24409;SDS011;12543;53.364;-1.504;2024-01-30T04:43:40;1.48;;;0.70;;
24409;SDS011;12543;53.364;-1.504;2024-01-30T04:46:07;0.70;;;0.70;;
24409;SDS011;12543;53.364;-1.504;2024-01-30T04:48:35;0.70;;;0.70;;
24409;SDS011;12543;53.364;-1.504;2024-01-30T04:51:03;0.73;;;0.70;;
24409;SDS011;12543;53.364;-1.504;2024-01-30T04:53:30;0.80;;;0.80;;
24409;SDS011;12543;53.364;-1.504;2024-01-30T04:55:58;0.75;;;0.75;;
24409;SDS011;12543;53.364;-1.504;2024-01-30T04:58:25;0.80;;;0.80;;
24409;SDS011;12543;53.364;-1.504;2024-01-30T05:00:53;0.50;;;0.50;;
24409;SDS011;12543;53.364;-1.504;2024-01-30T05:03:22;0.77;;;0.77;;
24409;SDS011;12543;53.364;-1.504;2024-01-30T05:05:50;0.70;;;0.70;;
24409;SDS011;12543;53.364;-1.504;2024-01-30T05:08:18;0.60;;;0.60;;
24409;SDS011;12543;53.364;-1.504;2024-01-30T05:10:46;0.80;;;0.80;;
24409;SDS011;12543;53.364;-1.504;2024-01-30T05:13:13;0.90;;;0.73;;
24409;SDS011;12543;53.364;-1.504;2024-01-30T05:15:41;0.60;;;0.60;;
24409;SDS011;12543;53.364;-1.504;2024-01-30T05:18:08;0.90;;;0.90;;
24409;SDS011;12543;53.364;-1.504;2024-01-30T05:20:36;1.00;;;1.00;;
24409;SDS011;12543;53.364;-1.504;2024-01-30T05:23:03;0.95;;;0.95;;
24409;SDS011;12543;53.364;-1.504;2024-01-30T05:25:31;1.13;;;1.02;;
24409;SDS011;12543;53.364;-1.504;2024-01-30T05:27:59;0.75;;;0.75;;
24409;SDS011;12543;53.364;-1.504;2024-01-30T05:30:26;0.82;;;0.82;;
24409;SDS011;12543;53.364;-1.504;2024-01-30T05:32:54;1.08;;;0.80;;
24409;SDS011;12543;53.364;-1.504;2024-01-30T05:35:21;0.83;;;0.83;;
24409;SDS011;12543;53.364;-1.504;2024-01-30T05:37:49;0.95;;;0.90;;
24409;SDS011;12543;53.364;-1.504;2024-01-30T05:40:17;0.90;;;0.90;;
24409;SDS011;12543;53.364;-1.504;2024-01-30T05:42:44;1.08;;;1.00;;
24409;SDS011;12543;53.364;-1.504;2024-01-30T05:45:12;1.10;;;1.00;;
24409;SDS011;12543;53.364;-1.504;2024-01-30T05:47:40;2.65;;;0.80;;
24409;SDS011;12543;53.364;-1.504;2024-01-30T05:50:07;0.90;;;0.90;;
24409;SDS011;12543;53.364;-1.504;2024-01-30T05:52:35;1.05;;;0.95;;
24409;SDS011;12543;53.364;-1.504;2024-01-30T05:55:02;0.83;;;0.83;;
24409;SDS011;12543;53.364;-1.504;2024-01-30T05:57:31;1.08;;;0.90;;
24409;SDS011;12543;53.364;-1.504;2024-01-30T05:59:58;0.85;;;0.85;;
24409;SDS011;12543;53.364;-1.504;2024-01-30T06:02:26;0.73;;;0.73;;
24409;SDS011;12543;53.364;-1.504;2024-01-30T06:04:54;0.70;;;0.70;;
24409;SDS011;12543;53.364;-1.504;2024-01-30T06:07:21;0.70;;;0.70;;
24409;SDS011;12543;53.364;-1.504;2024-01-30T06:09:49;0.60;;;0.60;;
24409;SDS011;12543;53.364;-1.504;2024-01-30T06:12:16;0.80;;;0.80;;
24409;SDS011;12543;53.364;-1.504;2024-01-30T06:14:44;0.53;;;0.53;;
24409;SDS011;12543;53.364;-1.504;2024-01-30T06:17:13;0.77;;;0.60;;
24409;SDS011;12543;53.364;-1.504;2024-01-30T06:19:41;0.40;;;0.40;;
24409;SDS011;12543;53.364;-1.504;2024-01-30T06:22:08;0.30;;;0.30;;
24409;SDS011;12543;53.364;-1.504;2024-01-30T06:24:36;0.40;;;0.40;;
24409;SDS011;12543;53.364;-1.504;2024-01-30T06:27:03;0.32;;;0.32;;
24409;SDS011;12543;53.364;-1.504;2024-01-30T06:29:31;0.30;;;0.30;;
24409;SDS011;12543;53.364;-1.504;2024-01-30T06:31:59;0.20;;;0.20;;
24409;SDS011;12543;53.364;-1.504;2024-01-30T06:34:26;0.30;;;0.30;;
24409;SDS011;12543;53.364;-1.504;2024-01-30T06:36:54;0.30;;;0.30;;
24409;SDS011;12543;53.364;-1.504;2024-01-30T06:39:22;0.30;;;0.30;;
24409;SDS011;12543;53.364;-1.504;2024-01-30T06:41:49;0.60;;;0.35;;
24409;SDS011;12543;53.364;-1.504;2024-01-30T06:44:17;0.47;;;0.40;;
24409;SDS011;12543;53.364;-1.504;2024-01-30T06:46:44;0.30;;;0.30;;
24409;SDS011;12543;53.364;-1.504;2024-01-30T06:49:12;0.30;;;0.30;;
24409;SDS011;12543;53.364;-1.504;2024-01-30T06:51:39;0.20;;;0.20;;
24409;SDS011;12543;53.364;-1.504;2024-01-30T06:54:07;0.20;;;0.20;;
24409;SDS011;12543;53.364;-1.504;2024-01-30T06:56:35;0.10;;;0.10;;
24409;SDS011;12543;53.364;-1.504;2024-01-30T06:59:02;0.20;;;0.20;;
24409;SDS011;12543;53.364;-1.504;2024-01-30T07:01:30;1.10;;;0.20;;
24409;SDS011;12543;53.364;-1.504;2024-01-30T07:03:58;0.30;;;0.20;;
24409;SDS011;12543;53.364;-1.504;2024-01-30T07:06:25;0.20;;;0.20;;
24409;SDS011;12543;53.364;-1.504;2024-01-30T07:08:53;0.17;;;0.17;;
24409;SDS011;12543;53.364;-1.504;2024-01-30T07:11:21;0.10;;;0.10;;
24409;SDS011;12543;53.364;-1.504;2024-01-30T07:13:49;0.20;;;0.20;;
24409;SDS011;12543;53.364;-1.504;2024-01-30T07:16:17;0.47;;;0.20;;
24409;SDS011;12543;53.364;-1.504;2024-01-30T07:18:45;0.20;;;0.20;;
24409;SDS011;12543;53.364;-1.504;2024-01-30T07:21:13;0.20;;;0.20;;
24409;SDS011;12543;53.364;-1.504;2024-01-30T07:26:09;0.20;;;0.20;;
24409;SDS011;12543;53.364;-1.504;2024-01-30T07:28:36;0.57;;;0.22;;
24409;SDS011;12543;53.364;-1.504;2024-01-30T07:31:04;0.22;;;0.22;;
24409;SDS011;12543;53.364;-1.504;2024-01-30T07:33:33;0.90;;;0.25;;
24409;SDS011;12543;53.364;-1.504;2024-01-30T07:36:00;0.17;;;0.17;;
24409;SDS011;12543;53.364;-1.504;2024-01-30T07:38:28;0.20;;;0.20;;
24409;SDS011;12543;53.364;-1.504;2024-01-30T07:40:56;0.22;;;0.22;;
24409;SDS011;12543;53.364;-1.504;2024-01-30T07:43:23;0.20;;;0.20;;
24409;SDS011;12543;53.364;-1.504;2024-01-30T07:45:51;0.77;;;0.25;;
24409;SDS011;12543;53.364;-1.504;2024-01-30T07:48:18;0.30;;;0.30;;
24409;SDS011;12543;53.364;-1.504;2024-01-30T07:50:46;0.20;;;0.20;;
24409;SDS011;12543;53.364;-1.504;2024-01-30T07:53:13;0.20;;;0.20;;
24409;SDS011;12543;53.364;-1.504;2024-01-30T07:55:41;0.20;;;0.20;;
24409;SDS011;12543;53.364;-1.504;2024-01-30T07:58:13;0.38;;;0.30;;
24409;SDS011;12543;53.364;-1.504;2024-01-30T08:00:40;0.33;;;0.33;;
24409;SDS011;12543;53.364;-1.504;2024-01-30T08:03:08;0.50;;;0.47;;
24409;SDS011;12543;53.364;-1.504;2024-01-30T08:05:36;0.83;;;0.50;;
24409;SDS011;12543;53.364;-1.504;2024-01-30T08:08:05;1.08;;;0.70;;
24409;SDS011;12543;53.364;-1.504;2024-01-30T08:10:33;2.20;;;0.87;;
24409;SDS011;12543;53.364;-1.504;2024-01-30T08:13:01;0.93;;;0.60;;
24409;SDS011;12543;53.364;-1.504;2024-01-30T08:15:28;0.50;;;0.50;;
24409;SDS011;12543;53.364;-1.504;2024-01-30T08:17:56;0.95;;;0.82;;
24409;SDS011;12543;53.364;-1.504;2024-01-30T08:20:24;0.60;;;0.50;;
24409;SDS011;12543;53.364;-1.504;2024-01-30T08:22:52;0.43;;;0.40;;
24409;SDS011;12543;53.364;-1.504;2024-01-30T08:25:20;0.40;;;0.40;;
24409;SDS011;12543;53.364;-1.504;2024-01-30T08:27:48;0.43;;;0.40;;
24409;SDS011;12543;53.364;-1.504;2024-01-30T08:30:16;0.35;;;0.35;;
24409;SDS011;12543;53.364;-1.504;2024-01-30T08:32:43;0.32;;;0.32;;
24409;SDS011;12543;53.364;-1.504;2024-01-30T08:35:11;0.40;;;0.40;;
24409;SDS011;12543;53.364;-1.504;2024-01-30T08:37:41;0.50;;;0.30;;
24409;SDS011;12543;53.364;-1.504;2024-01-30T08:40:09;0.60;;;0.40;;
24409;SDS011;12543;53.364;-1.504;2024-01-30T08:42:36;0.50;;;0.40;;
24409;SDS011;12543;53.364;-1.504;2024-01-30T08:45:04;0.85;;;0.40;;
24409;SDS011;12543;53.364;-1.504;2024-01-30T08:47:32;0.35;;;0.35;;
24409;SDS011;12543;53.364;-1.504;2024-01-30T08:50:00;0.40;;;0.40;;
24409;SDS011;12543;53.364;-1.504;2024-01-30T08:52:27;0.32;;;0.30;;
24409;SDS011;12543;53.364;-1.504;2024-01-30T08:54:55;0.40;;;0.40;;
24409;SDS011;12543;53.364;-1.504;2024-01-30T08:57:22;0.30;;;0.30;;
24409;SDS011;12543;53.364;-1.504;2024-01-30T08:59:50;0.20;;;0.20;;
24409;SDS011;12543;53.364;-1.504;2024-01-30T09:02:17;0.20;;;0.20;;
24409;SDS011;12543;53.364;-1.504;2024-01-30T09:04:45;0.98;;;0.30;;
24409;SDS011;12543;53.364;-1.504;2024-01-30T09:07:13;0.30;;;0.30;;
24409;SDS011;12543;53.364;-1.504;2024-01-30T09:09:41;0.30;;;0.30;;
24409;SDS011;12543;53.364;-1.504;2024-01-30T09:12:09;0.22;;;0.22;;
24409;SDS011;12543;53.364;-1.504;2024-01-30T09:14:39;0.20;;;0.20;;
24409;SDS011;12543;53.364;-1.504;2024-01-30T09:17:09;0.20;;;0.20;;
24409;SDS011;12543;53.364;-1.504;2024-01-30T09:19:40;0.28;;;0.28;;
24409;SDS011;12543;53.364;-1.504;2024-01-30T09:22:08;0.30;;;0.30;;
24409;SDS011;12543;53.364;-1.504;2024-01-30T09:24:35;0.20;;;0.20;;
24409;SDS011;12543;53.364;-1.504;2024-01-30T09:27:03;0.30;;;0.30;;
24409;SDS011;12543;53.364;-1.504;2024-01-30T09:29:31;0.20;;;0.20;;
24409;SDS011;12543;53.364;-1.504;2024-01-30T09:32:00;0.20;;;0.20;;
24409;SDS011;12543;53.364;-1.504;2024-01-30T09:34:28;0.40;;;0.30;;
24409;SDS011;12543;53.364;-1.504;2024-01-30T09:36:56;0.30;;;0.30;;
24409;SDS011;12543;53.364;-1.504;2024-01-30T09:39:23;0.30;;;0.30;;
24409;SDS011;12543;53.364;-1.504;2024-01-30T09:44:37;0.50;;;0.30;;
24409;SDS011;12543;53.364;-1.504;2024-01-30T09:47:08;0.35;;;0.35;;
24409;SDS011;12543;53.364;-1.504;2024-01-30T09:49:36;0.50;;;0.50;;
24409;SDS011;12543;53.364;-1.504;2024-01-30T09:52:05;0.30;;;0.30;;
24409;SDS011;12543;53.364;-1.504;2024-01-30T09:54:32;0.20;;;0.20;;
24409;SDS011;12543;53.364;-1.504;2024-01-30T09:57:02;0.40;;;0.40;;
24409;SDS011;12543;53.364;-1.504;2024-01-30T09:59:30;0.40;;;0.30;;
24409;SDS011;12543;53.364;-1.504;2024-01-30T10:01:58;0.30;;;0.30;;
24409;SDS011;12543;53.364;-1.504;2024-01-30T10:04:25;0.20;;;0.20;;
24409;SDS011;12543;53.364;-1.504;2024-01-30T10:06:53;0.10;;;0.10;;
24409;SDS011;12543;53.364;-1.504;2024-01-30T10:09:21;0.75;;;0.30;;
24409;SDS011;12543;53.364;-1.504;2024-01-30T10:11:49;0.95;;;0.38;;
24409;SDS011;12543;53.364;-1.504;2024-01-30T10:14:18;0.47;;;0.30;;
24409;SDS011;12543;53.364;-1.504;2024-01-30T10:16:46;1.00;;;0.30;;
24409;SDS011;12543;53.364;-1.504;2024-01-30T10:19:13;0.40;;;0.30;;
24409;SDS011;12543;53.364;-1.504;2024-01-30T10:21:41;0.83;;;0.30;;
24409;SDS011;12543;53.364;-1.504;2024-01-30T10:24:09;0.20;;;0.20;;
24409;SDS011;12543;53.364;-1.504;2024-01-30T10:26:39;0.30;;;0.30;;
24409;SDS011;12543;53.364;-1.504;2024-01-30T10:29:07;0.10;;;0.10;;
24409;SDS011;12543;53.364;-1.504;2024-01-30T10:31:35;0.30;;;0.30;;
24409;SDS011;12543;53.364;-1.504;2024-01-30T10:34:03;0.20;;;0.20;;
24409;SDS011;12543;53.364;-1.504;2024-01-30T10:36:43;0.20;;;0.20;;
24409;SDS011;12543;53.364;-1.504;2024-01-30T10:39:14;0.45;;;0.40;;
24409;SDS011;12543;53.364;-1.504;2024-01-30T10:41:43;0.20;;;0.20;;
24409;SDS011;12543;53.364;-1.504;2024-01-30T10:44:11;0.85;;;0.30;;
24409;SDS011;12543;53.364;-1.504;2024-01-30T10:46:40;0.20;;;0.20;;
24409;SDS011;12543;53.364;-1.504;2024-01-30T10:49:09;0.30;;;0.30;;
24409;SDS011;12543;53.364;-1.504;2024-01-30T10:51:37;0.32;;;0.32;;
24409;SDS011;12543;53.364;-1.504;2024-01-30T10:54:05;0.30;;;0.30;;
24409;SDS011;12543;53.364;-1.504;2024-01-30T10:56:34;0.57;;;0.50;;
24409;SDS011;12543;53.364;-1.504;2024-01-30T10:59:02;0.30;;;0.30;;
24409;SDS011;12543;53.364;-1.504;2024-01-30T11:01:30;0.40;;;0.40;;
24409;SDS011;12543;53.364;-1.504;2024-01-30T11:03:59;0.52;;;0.45;;
24409;SDS011;12543;53.364;-1.504;2024-01-30T11:06:26;0.30;;;0.30;;
24409;SDS011;12543;53.364;-1.504;2024-01-30T11:09:03;0.83;;;0.57;;
24409;SDS011;12543;53.364;-1.504;2024-01-30T11:11:55;0.73;;;0.50;;
24409;SDS011;12543;53.364;-1.504;2024-01-30T11:14:29;0.40;;;0.40;;
24409;SDS011;12543;53.364;-1.504;2024-01-30T11:16:58;0.30;;;0.30;;
24409;SDS011;12543;53.364;-1.504;2024-01-30T11:21:53;0.30;;;0.30;;
24409;SDS011;12543;53.364;-1.504;2024-01-30T11:24:24;0.40;;;0.40;;
24409;SDS011;12543;53.364;-1.504;2024-01-30T11:27:01;0.75;;;0.57;;
24409;SDS011;12543;53.364;-1.504;2024-01-30T11:29:31;0.50;;;0.50;;
24409;SDS011;12543;53.364;-1.504;2024-01-30T11:32:02;0.40;;;0.40;;
24409;SDS011;12543;53.364;-1.504;2024-01-30T11:34:29;0.40;;;0.40;;
24409;SDS011;12543;53.364;-1.504;2024-01-30T11:37:03;0.35;;;0.32;;
24409;SDS011;12543;53.364;-1.504;2024-01-30T11:39:32;0.60;;;0.60;;
24409;SDS011;12543;53.364;-1.504;2024-01-30T11:41:59;0.30;;;0.30;;
24409;SDS011;12543;53.364;-1.504;2024-01-30T11:44:27;0.50;;;0.50;;
24409;SDS011;12543;53.364;-1.504;2024-01-30T11:46:55;0.60;;;0.60;;
24409;SDS011;12543;53.364;-1.504;2024-01-30T11:49:23;0.50;;;0.50;;
24409;SDS011;12543;53.364;-1.504;2024-01-30T11:51:51;0.50;;;0.50;;
24409;SDS011;12543;53.364;-1.504;2024-01-30T11:54:20;0.50;;;0.47;;
24409;SDS011;12543;53.364;-1.504;2024-01-30T11:56:48;0.40;;;0.38;;
24409;SDS011;12543;53.364;-1.504;2024-01-30T11:59:16;0.43;;;0.43;;
24409;SDS011;12543;53.364;-1.504;2024-01-30T12:01:43;0.47;;;0.47;;
24409;SDS011;12543;53.364;-1.504;2024-01-30T12:04:11;0.40;;;0.40;;
24409;SDS011;12543;53.364;-1.504;2024-01-30T12:06:39;0.40;;;0.40;;
24409;SDS011;12543;53.364;-1.504;2024-01-30T12:09:07;0.47;;;0.47;;
24409;SDS011;12543;53.364;-1.504;2024-01-30T12:11:45;0.30;;;0.30;;
24409;SDS011;12543;53.364;-1.504;2024-01-30T12:14:13;0.35;;;0.35;;
24409;SDS011;12543;53.364;-1.504;2024-01-30T12:16:41;0.40;;;0.40;;
24409;SDS011;12543;53.364;-1.504;2024-01-30T12:19:09;0.30;;;0.30;;
24409;SDS011;12543;53.364;-1.504;2024-01-30T12:21:40;0.30;;;0.30;;
24409;SDS011;12543;53.364;-1.504;2024-01-30T12:24:16;0.20;;;0.20;;
24409;SDS011;12543;53.364;-1.504;2024-01-30T12:26:50;0.40;;;0.40;;
24409;SDS011;12543;53.364;-1.504;2024-01-30T12:29:19;0.30;;;0.30;;
24409;SDS011;12543;53.364;-1.504;2024-01-30T12:31:53;0.35;;;0.35;;
24409;SDS011;12543;53.364;-1.504;2024-01-30T12:34:29;0.30;;;0.30;;
24409;SDS011;12543;53.364;-1.504;2024-01-30T12:37:01;0.30;;;0.30;;
24409;SDS011;12543;53.364;-1.504;2024-01-30T12:39:29;0.40;;;0.40;;
24409;SDS011;12543;53.364;-1.504;2024-01-30T12:41:56;0.35;;;0.35;;
24409;SDS011;12543;53.364;-1.504;2024-01-30T12:44:24;0.73;;;0.30;;
24409;SDS011;12543;53.364;-1.504;2024-01-30T12:46:51;0.30;;;0.30;;
24409;SDS011;12543;53.364;-1.504;2024-01-30T12:49:25;0.40;;;0.40;;
24409;SDS011;12543;53.364;-1.504;2024-01-30T12:51:52;0.60;;;0.60;;
24409;SDS011;12543;53.364;-1.504;2024-01-30T12:54:20;1.35;;;0.50;;
24409;SDS011;12543;53.364;-1.504;2024-01-30T12:56:47;0.50;;;0.50;;
24409;SDS011;12543;53.364;-1.504;2024-01-30T12:59:15;0.75;;;0.50;;
24409;SDS011;12543;53.364;-1.504;2024-01-30T13:01:43;0.30;;;0.30;;
24409;SDS011;12543;53.364;-1.504;2024-01-30T13:04:14;0.80;;;0.40;;
24409;SDS011;12543;53.364;-1.504;2024-01-30T13:06:45;0.40;;;0.40;;
24409;SDS011;12543;53.364;-1.504;2024-01-30T13:09:16;0.50;;;0.50;;
24409;SDS011;12543;53.364;-1.504;2024-01-30T13:11:44;0.73;;;0.30;;
24409;SDS011;12543;53.364;-1.504;2024-01-30T13:14:23;0.40;;;0.40;;
24409;SDS011;12543;53.364;-1.504;2024-01-30T13:16:51;0.80;;;0.50;;
24409;SDS011;12543;53.364;-1.504;2024-01-30T13:19:19;0.40;;;0.40;;
24409;SDS011;12543;53.364;-1.504;2024-01-30T13:21:58;0.40;;;0.40;;
24409;SDS011;12543;53.364;-1.504;2024-01-30T13:24:38;0.47;;;0.47;;
24409;SDS011;12543;53.364;-1.504;2024-01-30T13:27:12;1.13;;;0.38;;
24409;SDS011;12543;53.364;-1.504;2024-01-30T13:29:39;0.60;;;0.60;;
24409;SDS011;12543;53.364;-1.504;2024-01-30T13:32:09;0.40;;;0.32;;
24409;SDS011;12543;53.364;-1.504;2024-01-30T13:34:46;0.40;;;0.40;;
24409;SDS011;12543;53.364;-1.504;2024-01-30T13:37:21;0.30;;;0.30;;
24409;SDS011;12543;53.364;-1.504;2024-01-30T13:39:51;0.40;;;0.40;;
24409;SDS011;12543;53.364;-1.504;2024-01-30T13:42:19;0.37;;;0.30;;
24409;SDS011;12543;53.364;-1.504;2024-01-30T13:44:46;0.20;;;0.20;;
24409;SDS011;12543;53.364;-1.504;2024-01-30T13:47:14;0.43;;;0.40;;
24409;SDS011;12543;53.364;-1.504;2024-01-30T13:49:42;1.98;;;0.45;;
24409;SDS011;12543;53.364;-1.504;2024-01-30T13:52:09;1.23;;;0.40;;
24409;SDS011;12543;53.364;-1.504;2024-01-30T13:54:37;0.20;;;0.20;;
24409;SDS011;12543;53.364;-1.504;2024-01-30T13:57:04;0.30;;;0.30;;
24409;SDS011;12543;53.364;-1.504;2024-01-30T13:59:33;0.40;;;0.40;;
24409;SDS011;12543;53.364;-1.504;2024-01-30T14:02:00;0.45;;;0.32;;
24409;SDS011;12543;53.364;-1.504;2024-01-30T14:04:28;0.30;;;0.30;;
24409;SDS011;12543;53.364;-1.504;2024-01-30T14:06:56;0.30;;;0.30;;
24409;SDS011;12543;53.364;-1.504;2024-01-30T14:09:30;0.50;;;0.38;;
24409;SDS011;12543;53.364;-1.504;2024-01-30T14:14:26;0.40;;;0.40;;
24409;SDS011;12543;53.364;-1.504;2024-01-30T14:16:54;0.97;;;0.40;;
24409;SDS011;12543;53.364;-1.504;2024-01-30T14:19:21;0.40;;;0.40;;
24409;SDS011;12543;53.364;-1.504;2024-01-30T14:21:49;0.37;;;0.37;;
24409;SDS011;12543;53.364;-1.504;2024-01-30T14:24:16;0.60;;;0.30;;
24409;SDS011;12543;53.364;-1.504;2024-01-30T14:26:44;0.45;;;0.40;;
24409;SDS011;12543;53.364;-1.504;2024-01-30T14:29:11;0.85;;;0.43;;
24409;SDS011;12543;53.364;-1.504;2024-01-30T14:31:39;0.52;;;0.25;;
24409;SDS011;12543;53.364;-1.504;2024-01-30T14:34:06;2.13;;;0.45;;
24409;SDS011;12543;53.364;-1.504;2024-01-30T14:36:35;0.73;;;0.30;;
24409;SDS011;12543;53.364;-1.504;2024-01-30T14:39:02;0.70;;;0.45;;
24409;SDS011;12543;53.364;-1.504;2024-01-30T14:41:30;2.17;;;0.50;;
24409;SDS011;12543;53.364;-1.504;2024-01-30T14:43:57;0.98;;;0.40;;
24409;SDS011;12543;53.364;-1.504;2024-01-30T14:46:25;2.58;;;0.50;;
24409;SDS011;12543;53.364;-1.504;2024-01-30T14:48:53;2.63;;;0.70;;
24409;SDS011;12543;53.364;-1.504;2024-01-30T14:51:21;1.27;;;0.82;;